sensor_id;sensor_type;location;lat;lon;timestamp;P1;durP1;ratioP1;P2;durP2;ratioP2
55037;SDS011;40937;53.594;10.034;2023-02-01T00:01:35;34.80;;;6.65;;
55037;SDS011;40937;53.594;10.034;2023-02-01T00:04:02;39.78;;;7.28;;
55037;SDS011;40937;53.594;10.034;2023-02-01T00:06:29;28.52;;;7.05;;
55037;SDS011;40937;53.594;10.034;2023-02-01T00:08:56;35.60;;;7.18;;
55037;SDS011;40937;53.594;10.034;2023-02-01T00:11:24;33.53;;;7.28;;
55037;SDS011;40937;53.594;10.034;2023-02-01T00:13:51;34.47;;;8.05;;
55037;SDS011;40937;53.594;10.034;2023-02-01T00:16:18;26.98;;;6.35;;
55037;SDS011;40937;53.594;10.034;2023-02-01T00:18:47;37.72;;;8.05;;
55037;SDS011;40937;53.594;10.034;2023-02-01T00:21:16;34.20;;;7.70;;
55037;SDS011;40937;53.594;10.034;2023-02-01T00:23:44;36.35;;;8.48;;
55037;SDS011;40937;53.594;10.034;2023-02-01T00:26:12;38.08;;;7.40;;
55037;SDS011;40937;53.594;10.034;2023-02-01T00:28:42;32.22;;;6.43;;
55037;SDS011;40937;53.594;10.034;2023-02-01T00:31:09;34.53;;;7.47;;
55037;SDS011;40937;53.594;10.034;2023-02-01T00:33:35;36.65;;;7.53;;
55037;SDS011;40937;53.594;10.034;2023-02-01T00:36:03;30.23;;;6.70;;
55037;SDS011;40937;53.594;10.034;2023-02-01T00:38:31;30.70;;;6.65;;
55037;SDS011;40937;53.594;10.034;2023-02-01T00:41:01;26.55;;;7.20;;
55037;SDS011;40937;53.594;10.034;2023-02-01T00:43:30;33.08;;;6.90;;
55037;SDS011;40937;53.594;10.034;2023-02-01T00:45:58;40.70;;;7.05;;
55037;SDS011;40937;53.594;10.034;2023-02-01T00:48:25;41.13;;;7.90;;
55037;SDS011;40937;53.594;10.034;2023-02-01T00:50:51;40.50;;;7.97;;
55037;SDS011;40937;53.594;10.034;2023-02-01T00:53:18;34.65;;;7.93;;
55037;SDS011;40937;53.594;10.034;2023-02-01T00:55:45;38.25;;;7.50;;
55037;SDS011;40937;53.594;10.034;2023-02-01T00:58:12;52.97;;;8.70;;
55037;SDS011;40937;53.594;10.034;2023-02-01T01:00:39;37.90;;;8.50;;
55037;SDS011;40937;53.594;10.034;2023-02-01T01:03:08;40.65;;;7.40;;
55037;SDS011;40937;53.594;10.034;2023-02-01T01:05:43;33.03;;;7.70;;
55037;SDS011;40937;53.594;10.034;2023-02-01T01:08:10;37.22;;;7.82;;
55037;SDS011;40937;53.594;10.034;2023-02-01T01:10:37;43.05;;;9.48;;
55037;SDS011;40937;53.594;10.034;2023-02-01T01:13:04;39.75;;;9.32;;
55037;SDS011;40937;53.594;10.034;2023-02-01T01:15:30;45.30;;;7.97;;
55037;SDS011;40937;53.594;10.034;2023-02-01T01:17:57;40.05;;;9.68;;
55037;SDS011;40937;53.594;10.034;2023-02-01T01:20:26;44.65;;;9.05;;
55037;SDS011;40937;53.594;10.034;2023-02-01T01:22:53;49.15;;;9.23;;
55037;SDS011;40937;53.594;10.034;2023-02-01T01:25:19;42.17;;;8.77;;
55037;SDS011;40937;53.594;10.034;2023-02-01T01:27:47;43.17;;;7.85;;
55037;SDS011;40937;53.594;10.034;2023-02-01T01:30:14;47.00;;;8.27;;
55037;SDS011;40937;53.594;10.034;2023-02-01T01:32:41;44.97;;;8.30;;
55037;SDS011;40937;53.594;10.034;2023-02-01T01:35:08;35.47;;;8.90;;
55037;SDS011;40937;53.594;10.034;2023-02-01T01:37:36;52.88;;;8.52;;
55037;SDS011;40937;53.594;10.034;2023-02-01T01:40:03;41.22;;;8.93;;
55037;SDS011;40937;53.594;10.034;2023-02-01T01:42:36;39.28;;;7.78;;
55037;SDS011;40937;53.594;10.034;2023-02-01T01:45:04;40.83;;;7.88;;
55037;SDS011;40937;53.594;10.034;2023-02-01T01:47:34;38.05;;;8.38;;
55037;SDS011;40937;53.594;10.034;2023-02-01T01:50:04;38.70;;;7.90;;
55037;SDS011;40937;53.594;10.034;2023-02-01T01:52:34;41.13;;;9.18;;
55037;SDS011;40937;53.594;10.034;2023-02-01T01:55:03;34.60;;;8.65;;
55037;SDS011;40937;53.594;10.034;2023-02-01T01:57:32;36.30;;;8.77;;
55037;SDS011;40937;53.594;10.034;2023-02-01T02:00:03;45.08;;;8.88;;
55037;SDS011;40937;53.594;10.034;2023-02-01T02:02:40;38.92;;;9.32;;
55037;SDS011;40937;53.594;10.034;2023-02-01T02:05:08;52.22;;;8.85;;
55037;SDS011;40937;53.594;10.034;2023-02-01T02:07:37;43.95;;;9.02;;
55037;SDS011;40937;53.594;10.034;2023-02-01T02:10:09;48.33;;;8.60;;
55037;SDS011;40937;53.594;10.034;2023-02-01T02:12:37;40.90;;;9.00;;
55037;SDS011;40937;53.594;10.034;2023-02-01T02:15:05;47.65;;;9.68;;
55037;SDS011;40937;53.594;10.034;2023-02-01T02:17:34;46.80;;;8.95;;
55037;SDS011;40937;53.594;10.034;2023-02-01T02:23:23;40.38;;;9.55;;
55037;SDS011;40937;53.594;10.034;2023-02-01T02:26:12;40.03;;;8.85;;
55037;SDS011;40937;53.594;10.034;2023-02-01T02:35:07;45.35;;;8.10;;
55037;SDS011;40937;53.594;10.034;2023-02-01T02:37:41;41.25;;;8.32;;
55037;SDS011;40937;53.594;10.034;2023-02-01T02:42:48;46.78;;;9.18;;
55037;SDS011;40937;53.594;10.034;2023-02-01T02:45:41;43.47;;;9.23;;
55037;SDS011;40937;53.594;10.034;2023-02-01T02:48:33;57.30;;;10.75;;
55037;SDS011;40937;53.594;10.034;2023-02-01T02:51:09;43.17;;;9.10;;
55037;SDS011;40937;53.594;10.034;2023-02-01T02:53:57;50.33;;;9.57;;
55037;SDS011;40937;53.594;10.034;2023-02-01T02:56:45;34.78;;;8.60;;
55037;SDS011;40937;53.594;10.034;2023-02-01T02:59:31;38.10;;;8.77;;
55037;SDS011;40937;53.594;10.034;2023-02-01T03:02:18;31.33;;;8.13;;
55037;SDS011;40937;53.594;10.034;2023-02-01T03:05:04;40.63;;;8.07;;
55037;SDS011;40937;53.594;10.034;2023-02-01T03:07:55;40.40;;;8.25;;
55037;SDS011;40937;53.594;10.034;2023-02-01T03:10:29;45.35;;;9.02;;
55037;SDS011;40937;53.594;10.034;2023-02-01T03:13:03;42.20;;;9.98;;
55037;SDS011;40937;53.594;10.034;2023-02-01T03:15:34;37.22;;;9.43;;
55037;SDS011;40937;53.594;10.034;2023-02-01T03:18:06;41.37;;;9.83;;
55037;SDS011;40937;53.594;10.034;2023-02-01T03:23:08;50.90;;;9.00;;
55037;SDS011;40937;53.594;10.034;2023-02-01T03:25:37;42.97;;;9.50;;
55037;SDS011;40937;53.594;10.034;2023-02-01T03:28:04;38.88;;;8.75;;
55037;SDS011;40937;53.594;10.034;2023-02-01T03:31:31;35.78;;;9.32;;
55037;SDS011;40937;53.594;10.034;2023-02-01T03:35:52;25.70;;;6.30;;
55037;SDS011;40937;53.594;10.034;2023-02-01T03:38:55;31.73;;;6.10;;
55037;SDS011;40937;53.594;10.034;2023-02-01T03:41:41;24.02;;;6.35;;
55037;SDS011;40937;53.594;10.034;2023-02-01T03:48:42;22.55;;;4.53;;
55037;SDS011;40937;53.594;10.034;2023-02-01T03:51:43;21.13;;;4.75;;
55037;SDS011;40937;53.594;10.034;2023-02-01T04:02:22;22.70;;;5.28;;
55037;SDS011;40937;53.594;10.034;2023-02-01T04:05:03;22.98;;;4.88;;
55037;SDS011;40937;53.594;10.034;2023-02-01T04:08:33;27.48;;;6.10;;
55037;SDS011;40937;53.594;10.034;2023-02-01T04:11:55;20.17;;;5.30;;
55037;SDS011;40937;53.594;10.034;2023-02-01T04:18:13;23.58;;;5.97;;
55037;SDS011;40937;53.594;10.034;2023-02-01T04:21:17;31.52;;;6.53;;
55037;SDS011;40937;53.594;10.034;2023-02-01T04:24:33;23.88;;;6.15;;
55037;SDS011;40937;53.594;10.034;2023-02-01T04:28:26;30.08;;;5.93;;
55037;SDS011;40937;53.594;10.034;2023-02-01T04:31:14;24.30;;;5.85;;
55037;SDS011;40937;53.594;10.034;2023-02-01T04:34:09;24.92;;;5.78;;
55037;SDS011;40937;53.594;10.034;2023-02-01T04:40:50;21.50;;;4.65;;
55037;SDS011;40937;53.594;10.034;2023-02-01T04:43:53;20.48;;;5.85;;
55037;SDS011;40937;53.594;10.034;2023-02-01T04:47:28;21.35;;;5.28;;
55037;SDS011;40937;53.594;10.034;2023-02-01T04:53:04;11.50;;;3.80;;
55037;SDS011;40937;53.594;10.034;2023-02-01T04:56:27;15.30;;;4.25;;
55037;SDS011;40937;53.594;10.034;2023-02-01T04:59:46;16.15;;;4.32;;
55037;SDS011;40937;53.594;10.034;2023-02-01T05:02:35;11.65;;;2.95;;
55037;SDS011;40937;53.594;10.034;2023-02-01T05:08:23;14.65;;;4.75;;
55037;SDS011;40937;53.594;10.034;2023-02-01T05:11:17;10.07;;;3.00;;
55037;SDS011;40937;53.594;10.034;2023-02-01T05:14:10;10.27;;;2.60;;
55037;SDS011;40937;53.594;10.034;2023-02-01T05:17:17;7.40;;;2.30;;
55037;SDS011;40937;53.594;10.034;2023-02-01T05:20:13;4.03;;;1.45;;
55037;SDS011;40937;53.594;10.034;2023-02-01T05:23:13;4.45;;;1.98;;
55037;SDS011;40937;53.594;10.034;2023-02-01T05:25:39;2.92;;;1.38;;
55037;SDS011;40937;53.594;10.034;2023-02-01T05:28:24;3.08;;;1.50;;
55037;SDS011;40937;53.594;10.034;2023-02-01T05:31:40;5.40;;;1.63;;
55037;SDS011;40937;53.594;10.034;2023-02-01T05:34:57;2.85;;;1.25;;
55037;SDS011;40937;53.594;10.034;2023-02-01T05:44:25;2.90;;;1.17;;
55037;SDS011;40937;53.594;10.034;2023-02-01T05:47:33;2.95;;;1.30;;
55037;SDS011;40937;53.594;10.034;2023-02-01T05:50:14;3.38;;;1.35;;
55037;SDS011;40937;53.594;10.034;2023-02-01T05:53:29;2.65;;;1.00;;
55037;SDS011;40937;53.594;10.034;2023-02-01T05:59:54;1.23;;;0.90;;
55037;SDS011;40937;53.594;10.034;2023-02-01T06:04:07;2.60;;;1.33;;
55037;SDS011;40937;53.594;10.034;2023-02-01T06:10:06;2.38;;;0.90;;
55037;SDS011;40937;53.594;10.034;2023-02-01T06:13:16;3.40;;;1.13;;
55037;SDS011;40937;53.594;10.034;2023-02-01T06:26:06;5.38;;;1.10;;
55037;SDS011;40937;53.594;10.034;2023-02-01T06:29:59;5.18;;;1.85;;
55037;SDS011;40937;53.594;10.034;2023-02-01T06:33:15;5.28;;;1.80;;
55037;SDS011;40937;53.594;10.034;2023-02-01T06:39:55;11.63;;;2.42;;
55037;SDS011;40937;53.594;10.034;2023-02-01T06:42:48;8.07;;;2.28;;
55037;SDS011;40937;53.594;10.034;2023-02-01T06:45:36;6.78;;;2.50;;
55037;SDS011;40937;53.594;10.034;2023-02-01T06:48:10;9.85;;;2.47;;
55037;SDS011;40937;53.594;10.034;2023-02-01T06:54:42;16.48;;;3.78;;
55037;SDS011;40937;53.594;10.034;2023-02-01T07:01:12;17.27;;;3.80;;
55037;SDS011;40937;53.594;10.034;2023-02-01T07:03:58;16.88;;;2.92;;
55037;SDS011;40937;53.594;10.034;2023-02-01T07:07:06;18.70;;;3.88;;
55037;SDS011;40937;53.594;10.034;2023-02-01T07:13:05;19.58;;;5.18;;
55037;SDS011;40937;53.594;10.034;2023-02-01T07:19:08;18.50;;;4.10;;
55037;SDS011;40937;53.594;10.034;2023-02-01T07:21:43;20.13;;;4.82;;
55037;SDS011;40937;53.594;10.034;2023-02-01T07:24:18;18.50;;;3.97;;
55037;SDS011;40937;53.594;10.034;2023-02-01T07:26:45;23.23;;;4.75;;
55037;SDS011;40937;53.594;10.034;2023-02-01T07:29:12;25.23;;;5.50;;
55037;SDS011;40937;53.594;10.034;2023-02-01T07:31:39;23.98;;;5.88;;
55037;SDS011;40937;53.594;10.034;2023-02-01T07:34:07;22.63;;;5.75;;
55037;SDS011;40937;53.594;10.034;2023-02-01T07:36:34;36.38;;;5.57;;
55037;SDS011;40937;53.594;10.034;2023-02-01T07:39:01;27.45;;;5.72;;
55037;SDS011;40937;53.594;10.034;2023-02-01T07:41:28;37.60;;;5.65;;
55037;SDS011;40937;53.594;10.034;2023-02-01T07:43:54;24.85;;;5.43;;
55037;SDS011;40937;53.594;10.034;2023-02-01T07:46:22;17.33;;;5.40;;
55037;SDS011;40937;53.594;10.034;2023-02-01T07:48:48;20.75;;;4.85;;
55037;SDS011;40937;53.594;10.034;2023-02-01T07:51:16;21.63;;;4.95;;
55037;SDS011;40937;53.594;10.034;2023-02-01T07:53:44;24.70;;;4.65;;
55037;SDS011;40937;53.594;10.034;2023-02-01T07:56:11;20.77;;;4.57;;
55037;SDS011;40937;53.594;10.034;2023-02-01T07:58:39;23.42;;;5.80;;
55037;SDS011;40937;53.594;10.034;2023-02-01T08:01:06;33.97;;;8.02;;
55037;SDS011;40937;53.594;10.034;2023-02-01T08:03:50;32.75;;;7.10;;
55037;SDS011;40937;53.594;10.034;2023-02-01T08:06:18;37.55;;;7.32;;
55037;SDS011;40937;53.594;10.034;2023-02-01T08:08:45;38.28;;;7.68;;
55037;SDS011;40937;53.594;10.034;2023-02-01T08:11:12;40.17;;;6.50;;
55037;SDS011;40937;53.594;10.034;2023-02-01T08:13:40;39.55;;;7.28;;
55037;SDS011;40937;53.594;10.034;2023-02-01T08:16:08;33.33;;;7.47;;
55037;SDS011;40937;53.594;10.034;2023-02-01T08:18:36;52.08;;;7.93;;
55037;SDS011;40937;53.594;10.034;2023-02-01T08:21:04;37.33;;;7.68;;
55037;SDS011;40937;53.594;10.034;2023-02-01T08:23:33;40.75;;;7.78;;
55037;SDS011;40937;53.594;10.034;2023-02-01T08:26:06;40.85;;;8.88;;
55037;SDS011;40937;53.594;10.034;2023-02-01T08:28:34;40.83;;;8.85;;
55037;SDS011;40937;53.594;10.034;2023-02-01T08:31:03;33.83;;;7.05;;
55037;SDS011;40937;53.594;10.034;2023-02-01T08:33:31;44.10;;;9.82;;
55037;SDS011;40937;53.594;10.034;2023-02-01T08:36:00;40.63;;;7.20;;
55037;SDS011;40937;53.594;10.034;2023-02-01T08:38:27;36.83;;;7.45;;
55037;SDS011;40937;53.594;10.034;2023-02-01T08:40:55;38.40;;;7.63;;
55037;SDS011;40937;53.594;10.034;2023-02-01T08:43:22;24.95;;;6.50;;
55037;SDS011;40937;53.594;10.034;2023-02-01T08:45:53;26.23;;;5.75;;
55037;SDS011;40937;53.594;10.034;2023-02-01T08:48:21;18.77;;;5.13;;
55037;SDS011;40937;53.594;10.034;2023-02-01T08:50:48;22.92;;;5.50;;
55037;SDS011;40937;53.594;10.034;2023-02-01T08:53:14;31.92;;;5.72;;
55037;SDS011;40937;53.594;10.034;2023-02-01T08:55:41;21.15;;;4.43;;
55037;SDS011;40937;53.594;10.034;2023-02-01T08:58:09;28.25;;;4.95;;
55037;SDS011;40937;53.594;10.034;2023-02-01T09:00:36;23.98;;;5.38;;
55037;SDS011;40937;53.594;10.034;2023-02-01T09:03:02;19.95;;;4.88;;
55037;SDS011;40937;53.594;10.034;2023-02-01T09:05:29;28.02;;;5.57;;
55037;SDS011;40937;53.594;10.034;2023-02-01T09:07:56;38.05;;;5.70;;
55037;SDS011;40937;53.594;10.034;2023-02-01T09:10:23;21.35;;;5.65;;
55037;SDS011;40937;53.594;10.034;2023-02-01T09:12:49;30.50;;;5.82;;
55037;SDS011;40937;53.594;10.034;2023-02-01T09:15:18;30.92;;;5.82;;
55037;SDS011;40937;53.594;10.034;2023-02-01T09:17:45;28.40;;;6.40;;
55037;SDS011;40937;53.594;10.034;2023-02-01T09:20:12;25.75;;;6.10;;
55037;SDS011;40937;53.594;10.034;2023-02-01T09:22:38;42.42;;;7.13;;
55037;SDS011;40937;53.594;10.034;2023-02-01T09:25:06;26.45;;;7.28;;
55037;SDS011;40937;53.594;10.034;2023-02-01T09:27:34;45.42;;;8.00;;
55037;SDS011;40937;53.594;10.034;2023-02-01T09:30:01;29.52;;;6.20;;
55037;SDS011;40937;53.594;10.034;2023-02-01T09:32:29;30.63;;;6.63;;
55037;SDS011;40937;53.594;10.034;2023-02-01T09:34:56;32.70;;;6.70;;
55037;SDS011;40937;53.594;10.034;2023-02-01T09:37:22;33.65;;;6.75;;
55037;SDS011;40937;53.594;10.034;2023-02-01T09:39:58;34.33;;;7.85;;
55037;SDS011;40937;53.594;10.034;2023-02-01T09:42:32;33.13;;;6.70;;
55037;SDS011;40937;53.594;10.034;2023-02-01T09:45:29;30.75;;;7.47;;
55037;SDS011;40937;53.594;10.034;2023-02-01T09:48:12;30.95;;;7.43;;
55037;SDS011;40937;53.594;10.034;2023-02-01T09:50:44;34.80;;;7.05;;
55037;SDS011;40937;53.594;10.034;2023-02-01T09:53:24;36.00;;;7.75;;
55037;SDS011;40937;53.594;10.034;2023-02-01T09:55:54;41.42;;;6.60;;
55037;SDS011;40937;53.594;10.034;2023-02-01T09:58:27;30.48;;;7.53;;
55037;SDS011;40937;53.594;10.034;2023-02-01T10:00:59;35.20;;;6.68;;
55037;SDS011;40937;53.594;10.034;2023-02-01T10:03:29;34.90;;;7.28;;
55037;SDS011;40937;53.594;10.034;2023-02-01T10:06:02;34.60;;;6.80;;
55037;SDS011;40937;53.594;10.034;2023-02-01T10:08:44;37.78;;;7.18;;
55037;SDS011;40937;53.594;10.034;2023-02-01T10:11:29;36.90;;;6.35;;
55037;SDS011;40937;53.594;10.034;2023-02-01T10:14:15;31.58;;;6.72;;
55037;SDS011;40937;53.594;10.034;2023-02-01T10:16:56;33.65;;;7.25;;
55037;SDS011;40937;53.594;10.034;2023-02-01T11:17:17;20.73;;;5.25;;
55037;SDS011;40937;53.594;10.034;2023-02-01T11:19:55;33.00;;;5.53;;
55037;SDS011;40937;53.594;10.034;2023-02-01T11:22:24;17.80;;;5.05;;
55037;SDS011;40937;53.594;10.034;2023-02-01T11:24:52;24.50;;;6.32;;
55037;SDS011;40937;53.594;10.034;2023-02-01T11:27:20;33.53;;;6.70;;
55037;SDS011;40937;53.594;10.034;2023-02-01T11:29:49;29.90;;;6.15;;
55037;SDS011;40937;53.594;10.034;2023-02-01T11:32:19;32.60;;;6.38;;
55037;SDS011;40937;53.594;10.034;2023-02-01T11:34:49;31.83;;;6.78;;
55037;SDS011;40937;53.594;10.034;2023-02-01T11:37:20;35.05;;;6.88;;
55037;SDS011;40937;53.594;10.034;2023-02-01T11:39:53;28.83;;;5.95;;
55037;SDS011;40937;53.594;10.034;2023-02-01T11:42:22;28.42;;;5.80;;
55037;SDS011;40937;53.594;10.034;2023-02-01T11:44:49;30.40;;;6.78;;
55037;SDS011;40937;53.594;10.034;2023-02-01T11:47:22;28.77;;;7.72;;
55037;SDS011;40937;53.594;10.034;2023-02-01T11:49:52;26.20;;;7.10;;
55037;SDS011;40937;53.594;10.034;2023-02-01T11:55:12;27.00;;;5.53;;
55037;SDS011;40937;53.594;10.034;2023-02-01T11:57:48;29.23;;;6.45;;
55037;SDS011;40937;53.594;10.034;2023-02-01T12:06:11;25.77;;;5.32;;
55037;SDS011;40937;53.594;10.034;2023-02-01T12:08:54;13.68;;;4.35;;
55037;SDS011;40937;53.594;10.034;2023-02-01T12:11:33;15.60;;;4.38;;
55037;SDS011;40937;53.594;10.034;2023-02-01T12:14:14;19.58;;;5.22;;
55037;SDS011;40937;53.594;10.034;2023-02-01T12:16:53;18.30;;;3.88;;
55037;SDS011;40937;53.594;10.034;2023-02-01T12:19:33;13.35;;;3.58;;
55037;SDS011;40937;53.594;10.034;2023-02-01T12:22:17;16.73;;;5.10;;
55037;SDS011;40937;53.594;10.034;2023-02-01T12:25:15;13.40;;;3.40;;
55037;SDS011;40937;53.594;10.034;2023-02-01T12:28:04;18.17;;;3.55;;
55037;SDS011;40937;53.594;10.034;2023-02-01T12:31:04;20.80;;;4.25;;
55037;SDS011;40937;53.594;10.034;2023-02-01T12:33:59;16.38;;;4.30;;
55037;SDS011;40937;53.594;10.034;2023-02-01T12:36:50;11.90;;;3.67;;
55037;SDS011;40937;53.594;10.034;2023-02-01T12:39:28;15.27;;;3.50;;
55037;SDS011;40937;53.594;10.034;2023-02-01T12:41:59;8.30;;;2.80;;
55037;SDS011;40937;53.594;10.034;2023-02-01T12:44:35;8.13;;;2.42;;
55037;SDS011;40937;53.594;10.034;2023-02-01T12:47:11;8.75;;;1.90;;
55037;SDS011;40937;53.594;10.034;2023-02-01T12:49:48;4.85;;;1.60;;
55037;SDS011;40937;53.594;10.034;2023-02-01T12:52:23;4.45;;;1.40;;
55037;SDS011;40937;53.594;10.034;2023-02-01T12:55:01;1.88;;;1.15;;
55037;SDS011;40937;53.594;10.034;2023-02-01T12:57:33;2.90;;;1.38;;
55037;SDS011;40937;53.594;10.034;2023-02-01T13:00:06;3.55;;;1.48;;
55037;SDS011;40937;53.594;10.034;2023-02-01T13:02:41;1.70;;;0.90;;
55037;SDS011;40937;53.594;10.034;2023-02-01T13:05:15;1.50;;;0.90;;
55037;SDS011;40937;53.594;10.034;2023-02-01T13:07:46;2.13;;;1.15;;
55037;SDS011;40937;53.594;10.034;2023-02-01T13:10:17;2.75;;;1.20;;
55037;SDS011;40937;53.594;10.034;2023-02-01T13:12:49;4.28;;;1.17;;
55037;SDS011;40937;53.594;10.034;2023-02-01T13:15:21;2.08;;;1.20;;
55037;SDS011;40937;53.594;10.034;2023-02-01T13:17:52;5.20;;;1.27;;
55037;SDS011;40937;53.594;10.034;2023-02-01T13:20:21;2.88;;;1.20;;
55037;SDS011;40937;53.594;10.034;2023-02-01T13:22:53;1.35;;;1.10;;
55037;SDS011;40937;53.594;10.034;2023-02-01T13:25:26;2.20;;;0.80;;
55037;SDS011;40937;53.594;10.034;2023-02-01T13:28:00;3.80;;;1.10;;
55037;SDS011;40937;53.594;10.034;2023-02-01T13:30:34;2.50;;;1.38;;
55037;SDS011;40937;53.594;10.034;2023-02-01T13:33:15;4.03;;;1.20;;
55037;SDS011;40937;53.594;10.034;2023-02-01T13:35:57;1.70;;;1.08;;
55037;SDS011;40937;53.594;10.034;2023-02-01T13:38:42;7.95;;;1.33;;
55037;SDS011;40937;53.594;10.034;2023-02-01T13:41:24;3.90;;;1.27;;
55037;SDS011;40937;53.594;10.034;2023-02-01T13:43:54;5.70;;;1.75;;
55037;SDS011;40937;53.594;10.034;2023-02-01T13:46:24;2.50;;;1.23;;
55037;SDS011;40937;53.594;10.034;2023-02-01T13:48:52;6.80;;;1.55;;
55037;SDS011;40937;53.594;10.034;2023-02-01T13:51:31;4.47;;;1.40;;
55037;SDS011;40937;53.594;10.034;2023-02-01T13:54:01;5.68;;;1.48;;
55037;SDS011;40937;53.594;10.034;2023-02-01T13:56:39;4.60;;;1.30;;
55037;SDS011;40937;53.594;10.034;2023-02-01T14:08:15;10.43;;;2.10;;
55037;SDS011;40937;53.594;10.034;2023-02-01T14:10:51;11.43;;;2.17;;
55037;SDS011;40937;53.594;10.034;2023-02-01T14:13:25;6.32;;;1.55;;
55037;SDS011;40937;53.594;10.034;2023-02-01T14:16:13;7.55;;;2.05;;
55037;SDS011;40937;53.594;10.034;2023-02-01T14:18:57;9.38;;;1.67;;
55037;SDS011;40937;53.594;10.034;2023-02-01T14:21:26;5.55;;;1.80;;
55037;SDS011;40937;53.594;10.034;2023-02-01T14:23:56;6.32;;;2.03;;
55037;SDS011;40937;53.594;10.034;2023-02-01T14:26:27;5.78;;;1.92;;
55037;SDS011;40937;53.594;10.034;2023-02-01T14:29:23;7.10;;;1.67;;
55037;SDS011;40937;53.594;10.034;2023-02-01T14:31:59;8.23;;;1.98;;
55037;SDS011;40937;53.594;10.034;2023-02-01T14:34:31;5.18;;;1.65;;
55037;SDS011;40937;53.594;10.034;2023-02-01T14:37:08;7.20;;;2.10;;
55037;SDS011;40937;53.594;10.034;2023-02-01T14:39:49;6.95;;;2.13;;
55037;SDS011;40937;53.594;10.034;2023-02-01T14:42:24;12.32;;;2.50;;
55037;SDS011;40937;53.594;10.034;2023-02-01T14:44:53;7.90;;;2.80;;
55037;SDS011;40937;53.594;10.034;2023-02-01T14:53:04;10.80;;;2.53;;
55037;SDS011;40937;53.594;10.034;2023-02-01T14:55:38;11.18;;;2.85;;
55037;SDS011;40937;53.594;10.034;2023-02-01T14:58:13;11.68;;;2.65;;
55037;SDS011;40937;53.594;10.034;2023-02-01T15:00:48;11.93;;;2.10;;
55037;SDS011;40937;53.594;10.034;2023-02-01T15:03:25;13.85;;;3.92;;
55037;SDS011;40937;53.594;10.034;2023-02-01T15:06:01;11.90;;;2.70;;
55037;SDS011;40937;53.594;10.034;2023-02-01T15:08:31;5.40;;;1.85;;
55037;SDS011;40937;53.594;10.034;2023-02-01T15:11:01;19.30;;;3.22;;
55037;SDS011;40937;53.594;10.034;2023-02-01T15:13:33;10.30;;;2.72;;
55037;SDS011;40937;53.594;10.034;2023-02-01T15:16:00;13.40;;;3.50;;
55037;SDS011;40937;53.594;10.034;2023-02-01T15:18:28;15.23;;;3.03;;
55037;SDS011;40937;53.594;10.034;2023-02-01T15:20:58;22.05;;;3.97;;
55037;SDS011;40937;53.594;10.034;2023-02-01T15:23:25;22.48;;;4.32;;
55037;SDS011;40937;53.594;10.034;2023-02-01T15:25:52;22.20;;;3.72;;
55037;SDS011;40937;53.594;10.034;2023-02-01T15:28:20;27.42;;;5.03;;
55037;SDS011;40937;53.594;10.034;2023-02-01T15:30:56;22.33;;;4.90;;
55037;SDS011;40937;53.594;10.034;2023-02-01T15:33:24;19.85;;;4.57;;
55037;SDS011;40937;53.594;10.034;2023-02-01T15:35:52;10.60;;;3.38;;
55037;SDS011;40937;53.594;10.034;2023-02-01T15:38:36;15.55;;;3.53;;
55037;SDS011;40937;53.594;10.034;2023-02-01T15:41:06;19.55;;;4.32;;
55037;SDS011;40937;53.594;10.034;2023-02-01T15:43:36;24.02;;;3.97;;
55037;SDS011;40937;53.594;10.034;2023-02-01T15:46:08;15.93;;;4.18;;
55037;SDS011;40937;53.594;10.034;2023-02-01T15:48:39;18.23;;;4.50;;
55037;SDS011;40937;53.594;10.034;2023-02-01T15:51:13;17.10;;;3.67;;
55037;SDS011;40937;53.594;10.034;2023-02-01T15:53:50;19.75;;;4.55;;
55037;SDS011;40937;53.594;10.034;2023-02-01T15:56:23;20.02;;;4.90;;
55037;SDS011;40937;53.594;10.034;2023-02-01T15:58:52;25.55;;;4.93;;
55037;SDS011;40937;53.594;10.034;2023-02-01T16:01:23;21.33;;;5.00;;
55037;SDS011;40937;53.594;10.034;2023-02-01T16:04:01;23.92;;;4.85;;
55037;SDS011;40937;53.594;10.034;2023-02-01T16:06:30;19.95;;;4.13;;
55037;SDS011;40937;53.594;10.034;2023-02-01T16:09:00;29.00;;;5.22;;
55037;SDS011;40937;53.594;10.034;2023-02-01T16:11:31;37.95;;;5.53;;
55037;SDS011;40937;53.594;10.034;2023-02-01T16:13:59;25.92;;;5.35;;
55037;SDS011;40937;53.594;10.034;2023-02-01T16:16:28;28.55;;;5.38;;
55037;SDS011;40937;53.594;10.034;2023-02-01T16:18:55;20.77;;;4.30;;
55037;SDS011;40937;53.594;10.034;2023-02-01T16:21:22;22.40;;;5.30;;
55037;SDS011;40937;53.594;10.034;2023-02-01T16:23:49;21.45;;;4.90;;
55037;SDS011;40937;53.594;10.034;2023-02-01T16:26:17;23.35;;;6.28;;
55037;SDS011;40937;53.594;10.034;2023-02-01T16:28:43;25.50;;;5.45;;
55037;SDS011;40937;53.594;10.034;2023-02-01T16:31:11;30.52;;;5.70;;
55037;SDS011;40937;53.594;10.034;2023-02-01T16:33:45;31.95;;;6.80;;
55037;SDS011;40937;53.594;10.034;2023-02-01T16:36:13;30.08;;;7.05;;
55037;SDS011;40937;53.594;10.034;2023-02-01T16:38:40;29.20;;;6.03;;
55037;SDS011;40937;53.594;10.034;2023-02-01T16:41:09;23.48;;;6.00;;
55037;SDS011;40937;53.594;10.034;2023-02-01T16:43:38;31.73;;;5.95;;
55037;SDS011;40937;53.594;10.034;2023-02-01T16:46:04;29.67;;;6.60;;
55037;SDS011;40937;53.594;10.034;2023-02-01T16:48:33;25.30;;;6.05;;
55037;SDS011;40937;53.594;10.034;2023-02-01T16:51:03;36.15;;;6.55;;
55037;SDS011;40937;53.594;10.034;2023-02-01T16:56:01;36.90;;;6.47;;
55037;SDS011;40937;53.594;10.034;2023-02-01T16:58:30;39.67;;;6.38;;
55037;SDS011;40937;53.594;10.034;2023-02-01T17:00:57;29.42;;;6.45;;
55037;SDS011;40937;53.594;10.034;2023-02-01T17:03:24;28.60;;;7.88;;
55037;SDS011;40937;53.594;10.034;2023-02-01T17:05:51;32.47;;;7.20;;
55037;SDS011;40937;53.594;10.034;2023-02-01T17:08:25;40.33;;;9.50;;
55037;SDS011;40937;53.594;10.034;2023-02-01T17:10:57;32.10;;;8.15;;
55037;SDS011;40937;53.594;10.034;2023-02-01T17:13:24;38.92;;;7.60;;
55037;SDS011;40937;53.594;10.034;2023-02-01T17:16:00;50.75;;;7.30;;
55037;SDS011;40937;53.594;10.034;2023-02-01T17:19:03;30.35;;;8.13;;
55037;SDS011;40937;53.594;10.034;2023-02-01T17:22:26;38.35;;;7.55;;
55037;SDS011;40937;53.594;10.034;2023-02-01T17:25:28;33.15;;;7.97;;
55037;SDS011;40937;53.594;10.034;2023-02-01T17:28:25;36.30;;;7.30;;
55037;SDS011;40937;53.594;10.034;2023-02-01T17:32:57;33.72;;;7.18;;
55037;SDS011;40937;53.594;10.034;2023-02-01T17:34:20;39.72;;;8.50;;
55037;SDS011;40937;53.594;10.034;2023-02-01T17:40:18;40.42;;;7.88;;
55037;SDS011;40937;53.594;10.034;2023-02-01T17:43:43;30.73;;;7.20;;
55037;SDS011;40937;53.594;10.034;2023-02-01T17:46:19;34.38;;;8.00;;
55037;SDS011;40937;53.594;10.034;2023-02-01T17:49:07;40.00;;;8.25;;
55037;SDS011;40937;53.594;10.034;2023-02-01T17:52:05;47.42;;;11.25;;
55037;SDS011;40937;53.594;10.034;2023-02-01T17:57:41;44.28;;;8.13;;
55037;SDS011;40937;53.594;10.034;2023-02-01T18:00:21;30.98;;;8.57;;
55037;SDS011;40937;53.594;10.034;2023-02-01T18:03:23;41.70;;;8.32;;
55037;SDS011;40937;53.594;10.034;2023-02-01T18:09:28;32.80;;;8.45;;
55037;SDS011;40937;53.594;10.034;2023-02-01T18:12:19;28.77;;;7.80;;
55037;SDS011;40937;53.594;10.034;2023-02-01T18:15:38;32.20;;;7.43;;
55037;SDS011;40937;53.594;10.034;2023-02-01T18:18:39;35.55;;;7.90;;
55037;SDS011;40937;53.594;10.034;2023-02-01T18:21:21;41.55;;;7.32;;